sensor_id;sensor_type;location;lat;lon;timestamp;P1;durP1;ratioP1;P2;durP2;ratioP2
67429;SDS011;54298;52.076;5.264;2023-10-31T00:00:48;2.31;;;1.0;;
67429;SDS011;54298;52.076;5.264;2023-10-31T00:04:00;2.9;;;1.4;;
67429;SDS011;54298;52.076;5.264;2023-10-31T00:05:36;2.7;;;1.3;;
67429;SDS011;54298;52.076;5.264;2023-10-31T00:07:12;3.6;;;1.2;;
67429;SDS011;54298;52.076;5.264;2023-10-31T00:10:25;4.2;;;1.5;;
67429;SDS011;54298;52.076;5.264;2023-10-31T00:12:02;4.41;;;1.3;;
67429;SDS011;54298;52.076;5.264;2023-10-31T00:13:38;2.8;;;1.4;;
67429;SDS011;54298;52.076;5.264;2023-10-31T00:16:50;3.1;;;1.3;;
67429;SDS011;54298;52.076;5.264;2023-10-31T00:18:26;3.4;;;1.7;;
67429;SDS011;54298;52.076;5.264;2023-10-31T00:20:02;5.8;;;2.0;;
67429;SDS011;54298;52.076;5.264;2023-10-31T00:23:15;6.4;;;2.4;;
67429;SDS011;54298;52.076;5.264;2023-10-31T00:24:51;3.9;;;2.6;;
67429;SDS011;54298;52.076;5.264;2023-10-31T00:26:27;4.5;;;2.6;;
67429;SDS011;54298;52.076;5.264;2023-10-31T00:28:04;5.9;;;3.4;;
67429;SDS011;54298;52.076;5.264;2023-10-31T00:31:16;4.41;;;2.7;;
67429;SDS011;54298;52.076;5.264;2023-10-31T00:32:52;6.9;;;3.8;;
67429;SDS011;54298;52.076;5.264;2023-10-31T00:34:28;5.7;;;4.1;;
67429;SDS011;54298;52.076;5.264;2023-10-31T00:37:40;8.31;;;4.3;;
67429;SDS011;54298;52.076;5.264;2023-10-31T00:39:16;7.2;;;4.1;;
67429;SDS011;54298;52.076;5.264;2023-10-31T00:40:52;8.71;;;4.3;;
67429;SDS011;54298;52.076;5.264;2023-10-31T00:44:05;8.5;;;4.8;;
67429;SDS011;54298;52.076;5.264;2023-10-31T00:45:41;9.6;;;5.0;;
67429;SDS011;54298;52.076;5.264;2023-10-31T00:47:17;7.9;;;5.8;;
67429;SDS011;54298;52.076;5.264;2023-10-31T00:48:53;11.2;;;5.7;;
67429;SDS011;54298;52.076;5.264;2023-10-31T00:52:05;9.5;;;5.7;;
67429;SDS011;54298;52.076;5.264;2023-10-31T00:53:41;9.81;;;5.8;;
67429;SDS011;54298;52.076;5.264;2023-10-31T00:55:17;9.31;;;5.3;;
67429;SDS011;54298;52.076;5.264;2023-10-31T00:58:30;7.2;;;5.11;;
67429;SDS011;54298;52.076;5.264;2023-10-31T01:00:07;7.7;;;5.2;;
67429;SDS011;54298;52.076;5.264;2023-10-31T01:01:44;10.6;;;5.2;;
67429;SDS011;54298;52.076;5.264;2023-10-31T01:04:56;15.3;;;5.2;;
67429;SDS011;54298;52.076;5.264;2023-10-31T01:06:32;7.0;;;4.5;;
67429;SDS011;54298;52.076;5.264;2023-10-31T01:08:08;6.7;;;4.3;;
67429;SDS011;54298;52.076;5.264;2023-10-31T01:11:20;7.3;;;4.0;;
67429;SDS011;54298;52.076;5.264;2023-10-31T01:12:56;9.81;;;3.5;;
67429;SDS011;54298;52.076;5.264;2023-10-31T01:14:32;4.8;;;3.0;;
67429;SDS011;54298;52.076;5.264;2023-10-31T01:16:09;5.11;;;2.9;;
67429;SDS011;54298;52.076;5.264;2023-10-31T01:19:21;6.0;;;2.9;;
67429;SDS011;54298;52.076;5.264;2023-10-31T01:20:57;3.1;;;2.0;;
67429;SDS011;54298;52.076;5.264;2023-10-31T01:22:33;4.91;;;2.1;;
67429;SDS011;54298;52.076;5.264;2023-10-31T01:25:45;5.4;;;2.0;;
67429;SDS011;54298;52.076;5.264;2023-10-31T01:27:21;7.3;;;2.21;;
67429;SDS011;54298;52.076;5.264;2023-10-31T01:28:57;4.7;;;2.31;;
67429;SDS011;54298;52.076;5.264;2023-10-31T01:32:10;6.2;;;2.31;;
67429;SDS011;54298;52.076;5.264;2023-10-31T01:33:46;5.7;;;2.8;;
67429;SDS011;54298;52.076;5.264;2023-10-31T01:35:22;6.7;;;3.0;;
67429;SDS011;54298;52.076;5.264;2023-10-31T01:38:34;9.4;;;3.7;;
67429;SDS011;54298;52.076;5.264;2023-10-31T01:40:12;6.3;;;3.6;;
67429;SDS011;54298;52.076;5.264;2023-10-31T01:41:48;8.5;;;4.41;;
67429;SDS011;54298;52.076;5.264;2023-10-31T01:43:29;8.2;;;4.5;;
67429;SDS011;54298;52.076;5.264;2023-10-31T01:46:42;7.4;;;4.91;;
67429;SDS011;54298;52.076;5.264;2023-10-31T01:48:18;9.1;;;5.3;;
67429;SDS011;54298;52.076;5.264;2023-10-31T01:49:55;10.9;;;5.2;;
67429;SDS011;54298;52.076;5.264;2023-10-31T01:53:07;9.5;;;5.3;;
67429;SDS011;54298;52.076;5.264;2023-10-31T01:54:43;10.21;;;5.3;;
67429;SDS011;54298;52.076;5.264;2023-10-31T01:56:20;9.31;;;5.3;;
67429;SDS011;54298;52.076;5.264;2023-10-31T01:57:57;9.31;;;5.6;;
67429;SDS011;54298;52.076;5.264;2023-10-31T02:01:10;11.8;;;5.9;;
67429;SDS011;54298;52.076;5.264;2023-10-31T02:02:46;11.8;;;6.3;;
67429;SDS011;54298;52.076;5.264;2023-10-31T02:06:00;10.6;;;5.7;;
67429;SDS011;54298;52.076;5.264;2023-10-31T02:07:36;11.4;;;7.0;;
67429;SDS011;54298;52.076;5.264;2023-10-31T02:09:12;14.0;;;6.3;;
67429;SDS011;54298;52.076;5.264;2023-10-31T02:10:48;10.8;;;6.2;;
67429;SDS011;54298;52.076;5.264;2023-10-31T02:14:08;9.21;;;5.6;;
67429;SDS011;54298;52.076;5.264;2023-10-31T02:15:44;8.31;;;5.5;;
67429;SDS011;54298;52.076;5.264;2023-10-31T02:17:21;12.5;;;5.9;;
67429;SDS011;54298;52.076;5.264;2023-10-31T02:18:57;8.81;;;5.4;;
67429;SDS011;54298;52.076;5.264;2023-10-31T02:22:10;7.4;;;4.5;;
67429;SDS011;54298;52.076;5.264;2023-10-31T02:23:55;5.9;;;3.9;;
67429;SDS011;54298;52.076;5.264;2023-10-31T02:25:33;9.21;;;4.41;;
67429;SDS011;54298;52.076;5.264;2023-10-31T02:28:45;8.5;;;4.1;;
67429;SDS011;54298;52.076;5.264;2023-10-31T02:30:21;9.31;;;4.1;;
67429;SDS011;54298;52.076;5.264;2023-10-31T02:31:57;7.0;;;3.7;;
67429;SDS011;54298;52.076;5.264;2023-10-31T02:33:33;7.5;;;4.5;;
67429;SDS011;54298;52.076;5.264;2023-10-31T02:36:45;8.6;;;3.8;;
67429;SDS011;54298;52.076;5.264;2023-10-31T02:38:21;6.4;;;3.7;;
67429;SDS011;54298;52.076;5.264;2023-10-31T02:39:57;6.7;;;3.8;;
67429;SDS011;54298;52.076;5.264;2023-10-31T02:43:10;9.31;;;4.0;;
67429;SDS011;54298;52.076;5.264;2023-10-31T02:44:46;7.3;;;3.5;;
67429;SDS011;54298;52.076;5.264;2023-10-31T02:46:22;9.21;;;4.0;;
67429;SDS011;54298;52.076;5.264;2023-10-31T02:49:34;7.8;;;4.1;;
67429;SDS011;54298;52.076;5.264;2023-10-31T02:51:10;7.3;;;3.9;;
67429;SDS011;54298;52.076;5.264;2023-10-31T02:52:46;7.9;;;4.0;;
67429;SDS011;54298;52.076;5.264;2023-10-31T02:55:58;8.4;;;4.3;;
67429;SDS011;54298;52.076;5.264;2023-10-31T02:57:35;8.71;;;4.3;;
67429;SDS011;54298;52.076;5.264;2023-10-31T02:59:11;8.0;;;5.0;;
67429;SDS011;54298;52.076;5.264;2023-10-31T03:00:47;7.2;;;4.1;;
67429;SDS011;54298;52.076;5.264;2023-10-31T03:03:59;8.1;;;4.2;;
67429;SDS011;54298;52.076;5.264;2023-10-31T03:05:35;5.8;;;4.0;;
67429;SDS011;54298;52.076;5.264;2023-10-31T03:07:11;8.31;;;4.3;;
67429;SDS011;54298;52.076;5.264;2023-10-31T03:10:23;6.7;;;4.1;;
67429;SDS011;54298;52.076;5.264;2023-10-31T03:11:59;8.0;;;4.3;;
67429;SDS011;54298;52.076;5.264;2023-10-31T03:13:35;8.81;;;4.41;;
67429;SDS011;54298;52.076;5.264;2023-10-31T03:16:48;7.0;;;4.2;;
67429;SDS011;54298;52.076;5.264;2023-10-31T03:18:24;5.8;;;3.0;;
67429;SDS011;54298;52.076;5.264;2023-10-31T03:20:00;8.0;;;3.7;;
67429;SDS011;54298;52.076;5.264;2023-10-31T03:21:36;10.3;;;3.6;;
67429;SDS011;54298;52.076;5.264;2023-10-31T03:24:48;5.11;;;2.8;;
67429;SDS011;54298;52.076;5.264;2023-10-31T03:26:24;4.7;;;2.6;;
67429;SDS011;54298;52.076;5.264;2023-10-31T03:28:01;4.7;;;2.4;;
67429;SDS011;54298;52.076;5.264;2023-10-31T03:31:14;4.8;;;2.4;;
67429;SDS011;54298;52.076;5.264;2023-10-31T03:32:51;4.2;;;2.31;;
67429;SDS011;54298;52.076;5.264;2023-10-31T03:34:27;5.11;;;2.4;;
67429;SDS011;54298;52.076;5.264;2023-10-31T03:37:40;6.7;;;2.0;;
67429;SDS011;54298;52.076;5.264;2023-10-31T03:39:16;5.2;;;2.0;;
67429;SDS011;54298;52.076;5.264;2023-10-31T03:40:53;5.0;;;2.0;;
67429;SDS011;54298;52.076;5.264;2023-10-31T03:44:05;5.8;;;2.1;;
67429;SDS011;54298;52.076;5.264;2023-10-31T03:45:41;6.2;;;2.21;;
67429;SDS011;54298;52.076;5.264;2023-10-31T03:47:17;4.61;;;1.6;;
67429;SDS011;54298;52.076;5.264;2023-10-31T03:52:06;6.2;;;1.7;;
67429;SDS011;54298;52.076;5.264;2023-10-31T03:53:42;3.5;;;1.5;;
67429;SDS011;54298;52.076;5.264;2023-10-31T03:55:18;6.2;;;1.7;;
67429;SDS011;54298;52.076;5.264;2023-10-31T03:58:30;4.2;;;1.6;;
67429;SDS011;54298;52.076;5.264;2023-10-31T04:00:07;2.9;;;1.5;;
67429;SDS011;54298;52.076;5.264;2023-10-31T04:01:43;4.41;;;1.3;;
67429;SDS011;54298;52.076;5.264;2023-10-31T04:04:56;6.1;;;1.8;;
67429;SDS011;54298;52.076;5.264;2023-10-31T04:06:32;3.3;;;1.3;;
67429;SDS011;54298;52.076;5.264;2023-10-31T04:08:08;2.4;;;1.6;;
67429;SDS011;54298;52.076;5.264;2023-10-31T04:09:44;3.3;;;1.3;;
67429;SDS011;54298;52.076;5.264;2023-10-31T04:12:56;3.0;;;1.8;;
67429;SDS011;54298;52.076;5.264;2023-10-31T04:14:32;6.1;;;2.0;;
67429;SDS011;54298;52.076;5.264;2023-10-31T04:16:10;3.9;;;1.8;;
67429;SDS011;54298;52.076;5.264;2023-10-31T04:19:23;2.9;;;1.7;;
67429;SDS011;54298;52.076;5.264;2023-10-31T04:20:59;4.8;;;1.7;;
67429;SDS011;54298;52.076;5.264;2023-10-31T04:22:36;4.7;;;1.8;;
67429;SDS011;54298;52.076;5.264;2023-10-31T04:25:48;4.2;;;1.7;;
67429;SDS011;54298;52.076;5.264;2023-10-31T04:27:24;2.8;;;1.5;;
67429;SDS011;54298;52.076;5.264;2023-10-31T04:29:00;2.0;;;1.3;;
67429;SDS011;54298;52.076;5.264;2023-10-31T04:32:12;5.7;;;1.6;;
67429;SDS011;54298;52.076;5.264;2023-10-31T04:33:48;2.7;;;1.3;;
67429;SDS011;54298;52.076;5.264;2023-10-31T04:35:24;1.6;;;1.0;;
67429;SDS011;54298;52.076;5.264;2023-10-31T04:37:01;5.5;;;1.11;;
67429;SDS011;54298;52.076;5.264;2023-10-31T04:40:13;2.21;;;1.11;;
67429;SDS011;54298;52.076;5.264;2023-10-31T04:41:49;1.4;;;0.8;;
67429;SDS011;54298;52.076;5.264;2023-10-31T04:43:25;2.6;;;0.9;;
67429;SDS011;54298;52.076;5.264;2023-10-31T04:46:37;2.6;;;1.11;;
67429;SDS011;54298;52.076;5.264;2023-10-31T04:48:13;2.6;;;1.0;;
67429;SDS011;54298;52.076;5.264;2023-10-31T04:49:49;1.7;;;0.8;;
67429;SDS011;54298;52.076;5.264;2023-10-31T04:53:01;1.6;;;1.0;;
67429;SDS011;54298;52.076;5.264;2023-10-31T04:54:38;3.8;;;0.9;;
67429;SDS011;54298;52.076;5.264;2023-10-31T04:56:15;1.3;;;0.9;;
67429;SDS011;54298;52.076;5.264;2023-10-31T04:57:52;2.9;;;0.8;;
67429;SDS011;54298;52.076;5.264;2023-10-31T05:01:08;1.9;;;1.0;;
67429;SDS011;54298;52.076;5.264;2023-10-31T05:02:44;3.0;;;0.8;;
67429;SDS011;54298;52.076;5.264;2023-10-31T05:04:20;0.9;;;0.7;;
67429;SDS011;54298;52.076;5.264;2023-10-31T05:07:32;2.1;;;0.9;;
67429;SDS011;54298;52.076;5.264;2023-10-31T05:09:08;2.4;;;0.8;;
67429;SDS011;54298;52.076;5.264;2023-10-31T05:10:44;1.6;;;0.8;;
67429;SDS011;54298;52.076;5.264;2023-10-31T05:13:57;2.31;;;0.8;;
67429;SDS011;54298;52.076;5.264;2023-10-31T05:15:33;1.5;;;0.8;;
67429;SDS011;54298;52.076;5.264;2023-10-31T05:17:09;1.0;;;0.6;;
67429;SDS011;54298;52.076;5.264;2023-10-31T05:18:45;1.9;;;0.8;;
67429;SDS011;54298;52.076;5.264;2023-10-31T05:21:57;1.6;;;0.7;;
67429;SDS011;54298;52.076;5.264;2023-10-31T05:23:33;3.6;;;1.0;;
67429;SDS011;54298;52.076;5.264;2023-10-31T05:25:09;2.4;;;1.0;;
67429;SDS011;54298;52.076;5.264;2023-10-31T05:28:21;1.5;;;0.8;;
67429;SDS011;54298;52.076;5.264;2023-10-31T05:29:58;2.6;;;0.9;;
67429;SDS011;54298;52.076;5.264;2023-10-31T05:31:34;1.8;;;1.0;;
67429;SDS011;54298;52.076;5.264;2023-10-31T05:34:47;1.9;;;1.0;;
67429;SDS011;54298;52.076;5.264;2023-10-31T05:36:23;3.8;;;2.1;;
67429;SDS011;54298;52.076;5.264;2023-10-31T05:38:01;2.21;;;1.3;;
67429;SDS011;54298;52.076;5.264;2023-10-31T05:41:13;4.0;;;1.7;;
67429;SDS011;54298;52.076;5.264;2023-10-31T05:42:49;3.4;;;1.7;;
67429;SDS011;54298;52.076;5.264;2023-10-31T05:44:25;3.4;;;1.8;;
67429;SDS011;54298;52.076;5.264;2023-10-31T05:46:02;4.0;;;1.8;;
67429;SDS011;54298;52.076;5.264;2023-10-31T05:49:14;4.5;;;2.31;;
67429;SDS011;54298;52.076;5.264;2023-10-31T05:50:50;3.3;;;2.0;;
67429;SDS011;54298;52.076;5.264;2023-10-31T05:52:27;4.5;;;2.5;;
67429;SDS011;54298;52.076;5.264;2023-10-31T05:55:42;4.1;;;2.7;;
67429;SDS011;54298;52.076;5.264;2023-10-31T05:57:18;4.5;;;2.7;;
67429;SDS011;54298;52.076;5.264;2023-10-31T05:58:54;7.9;;;3.0;;
67429;SDS011;54298;52.076;5.264;2023-10-31T06:02:07;5.4;;;2.9;;
67429;SDS011;54298;52.076;5.264;2023-10-31T06:03:43;7.0;;;2.8;;
67429;SDS011;54298;52.076;5.264;2023-10-31T06:05:19;5.8;;;2.8;;
67429;SDS011;54298;52.076;5.264;2023-10-31T06:06:55;6.0;;;2.7;;
67429;SDS011;54298;52.076;5.264;2023-10-31T06:10:07;5.0;;;2.6;;
67429;SDS011;54298;52.076;5.264;2023-10-31T06:11:43;6.9;;;2.6;;
67429;SDS011;54298;52.076;5.264;2023-10-31T06:13:19;14.5;;;6.4;;
67429;SDS011;54298;52.076;5.264;2023-10-31T06:16:31;11.4;;;6.6;;
67429;SDS011;54298;52.076;5.264;2023-10-31T06:18:08;7.4;;;4.41;;
67429;SDS011;54298;52.076;5.264;2023-10-31T06:19:44;5.11;;;2.21;;
67429;SDS011;54298;52.076;5.264;2023-10-31T06:22:56;6.2;;;2.1;;
67429;SDS011;54298;52.076;5.264;2023-10-31T06:24:32;2.7;;;1.7;;
67429;SDS011;54298;52.076;5.264;2023-10-31T06:26:08;6.1;;;2.21;;
67429;SDS011;54298;52.076;5.264;2023-10-31T06:29:20;4.1;;;1.6;;
67429;SDS011;54298;52.076;5.264;2023-10-31T06:30:56;3.5;;;2.21;;
67429;SDS011;54298;52.076;5.264;2023-10-31T06:32:32;12.7;;;5.9;;
67429;SDS011;54298;52.076;5.264;2023-10-31T06:34:09;3.9;;;2.1;;
67429;SDS011;54298;52.076;5.264;2023-10-31T06:37:21;2.31;;;1.2;;
67429;SDS011;54298;52.076;5.264;2023-10-31T06:38:57;2.9;;;1.2;;
67429;SDS011;54298;52.076;5.264;2023-10-31T06:40:33;3.5;;;1.8;;
67429;SDS011;54298;52.076;5.264;2023-10-31T06:43:45;2.21;;;1.2;;
67429;SDS011;54298;52.076;5.264;2023-10-31T06:45:21;2.4;;;1.2;;
67429;SDS011;54298;52.076;5.264;2023-10-31T06:46:57;4.41;;;1.9;;
67429;SDS011;54298;52.076;5.264;2023-10-31T06:50:09;4.7;;;1.9;;
67429;SDS011;54298;52.076;5.264;2023-10-31T06:51:46;6.8;;;2.6;;
67429;SDS011;54298;52.076;5.264;2023-10-31T06:53:22;14.9;;;8.31;;
67429;SDS011;54298;52.076;5.264;2023-10-31T06:54:58;5.8;;;3.1;;
67429;SDS011;54298;52.076;5.264;2023-10-31T06:58:10;9.71;;;2.0;;
67429;SDS011;54298;52.076;5.264;2023-10-31T06:59:46;7.5;;;3.0;;
67429;SDS011;54298;52.076;5.264;2023-10-31T07:01:22;3.8;;;1.2;;
67429;SDS011;54298;52.076;5.264;2023-10-31T07:04:35;3.5;;;1.5;;
67429;SDS011;54298;52.076;5.264;2023-10-31T07:06:11;4.7;;;2.21;;
67429;SDS011;54298;52.076;5.264;2023-10-31T07:07:48;3.4;;;1.7;;
67429;SDS011;54298;52.076;5.264;2023-10-31T07:11:01;3.2;;;1.0;;
67429;SDS011;54298;52.076;5.264;2023-10-31T07:12:37;2.4;;;1.11;;
67429;SDS011;54298;52.076;5.264;2023-10-31T07:14:14;2.5;;;1.0;;
67429;SDS011;54298;52.076;5.264;2023-10-31T07:17:26;4.7;;;1.5;;
67429;SDS011;54298;52.076;5.264;2023-10-31T07:19:02;3.5;;;1.2;;
67429;SDS011;54298;52.076;5.264;2023-10-31T07:20:38;2.8;;;1.4;;
67429;SDS011;54298;52.076;5.264;2023-10-31T07:22:14;4.3;;;1.0;;
67429;SDS011;54298;52.076;5.264;2023-10-31T07:25:27;3.9;;;0.9;;
67429;SDS011;54298;52.076;5.264;2023-10-31T07:27:04;1.8;;;1.0;;
67429;SDS011;54298;52.076;5.264;2023-10-31T07:28:40;3.9;;;1.7;;
67429;SDS011;54298;52.076;5.264;2023-10-31T07:31:52;2.7;;;1.5;;
67429;SDS011;54298;52.076;5.264;2023-10-31T07:33:28;3.6;;;1.3;;
67429;SDS011;54298;52.076;5.264;2023-10-31T07:35:04;9.6;;;4.1;;
67429;SDS011;54298;52.076;5.264;2023-10-31T07:38:17;4.3;;;2.5;;
67429;SDS011;54298;52.076;5.264;2023-10-31T07:39:53;5.8;;;3.2;;
67429;SDS011;54298;52.076;5.264;2023-10-31T07:41:29;6.7;;;2.8;;
67429;SDS011;54298;52.076;5.264;2023-10-31T07:43:06;9.81;;;4.91;;
67429;SDS011;54298;52.076;5.264;2023-10-31T07:46:18;3.9;;;1.6;;
67429;SDS011;54298;52.076;5.264;2023-10-31T07:47:54;3.0;;;1.3;;
67429;SDS011;54298;52.076;5.264;2023-10-31T07:49:30;3.1;;;1.2;;
67429;SDS011;54298;52.076;5.264;2023-10-31T07:52:42;2.7;;;1.5;;
67429;SDS011;54298;52.076;5.264;2023-10-31T07:54:18;4.7;;;2.21;;
67429;SDS011;54298;52.076;5.264;2023-10-31T07:55:54;3.2;;;1.7;;
67429;SDS011;54298;52.076;5.264;2023-10-31T07:59:07;4.91;;;2.31;;
67429;SDS011;54298;52.076;5.264;2023-10-31T08:00:43;6.8;;;2.8;;
67429;SDS011;54298;52.076;5.264;2023-10-31T08:02:19;6.1;;;3.4;;
67429;SDS011;54298;52.076;5.264;2023-10-31T08:05:31;4.61;;;2.1;;
67429;SDS011;54298;52.076;5.264;2023-10-31T08:07:07;4.1;;;2.31;;
67429;SDS011;54298;52.076;5.264;2023-10-31T08:08:43;5.5;;;2.7;;
67429;SDS011;54298;52.076;5.264;2023-10-31T08:10:19;5.4;;;2.21;;
67429;SDS011;54298;52.076;5.264;2023-10-31T08:13:31;4.91;;;2.21;;
67429;SDS011;54298;52.076;5.264;2023-10-31T08:15:09;4.2;;;2.1;;
67429;SDS011;54298;52.076;5.264;2023-10-31T08:16:46;5.4;;;2.4;;
67429;SDS011;54298;52.076;5.264;2023-10-31T08:19:59;4.5;;;2.6;;
67429;SDS011;54298;52.076;5.264;2023-10-31T08:21:35;7.4;;;3.0;;
67429;SDS011;54298;52.076;5.264;2023-10-31T08:23:12;3.2;;;1.9;;
67429;SDS011;54298;52.076;5.264;2023-10-31T08:26:24;5.4;;;2.21;;
67429;SDS011;54298;52.076;5.264;2023-10-31T08:28:00;13.7;;;4.3;;
67429;SDS011;54298;52.076;5.264;2023-10-31T08:29:36;9.31;;;3.2;;
67429;SDS011;54298;52.076;5.264;2023-10-31T08:31:12;4.91;;;2.6;;
67429;SDS011;54298;52.076;5.264;2023-10-31T08:34:25;10.8;;;3.1;;
67429;SDS011;54298;52.076;5.264;2023-10-31T08:36:02;11.9;;;4.61;;
67429;SDS011;54298;52.076;5.264;2023-10-31T08:37:39;5.11;;;2.9;;
67429;SDS011;54298;52.076;5.264;2023-10-31T08:40:51;11.0;;;6.1;;
67429;SDS011;54298;52.076;5.264;2023-10-31T08:42:27;8.2;;;3.0;;
67429;SDS011;54298;52.076;5.264;2023-10-31T08:44:03;7.2;;;2.31;;
67429;SDS011;54298;52.076;5.264;2023-10-31T08:47:15;6.9;;;2.31;;
67429;SDS011;54298;52.076;5.264;2023-10-31T08:48:51;8.9;;;3.1;;
67429;SDS011;54298;52.076;5.264;2023-10-31T08:50:28;5.11;;;2.21;;
67429;SDS011;54298;52.076;5.264;2023-10-31T08:53:40;7.5;;;2.4;;
67429;SDS011;54298;52.076;5.264;2023-10-31T08:55:16;6.1;;;2.4;;
67429;SDS011;54298;52.076;5.264;2023-10-31T08:56:52;9.21;;;2.9;;
67429;SDS011;54298;52.076;5.264;2023-10-31T08:58:28;7.5;;;2.5;;
67429;SDS011;54298;52.076;5.264;2023-10-31T09:01:42;3.8;;;2.0;;
67429;SDS011;54298;52.076;5.264;2023-10-31T09:03:18;5.5;;;2.5;;
67429;SDS011;54298;52.076;5.264;2023-10-31T09:04:54;5.5;;;2.4;;
67429;SDS011;54298;52.076;5.264;2023-10-31T09:08:07;10.4;;;5.5;;
67429;SDS011;54298;52.076;5.264;2023-10-31T09:09:43;7.4;;;4.61;;
67429;SDS011;54298;52.076;5.264;2023-10-31T09:11:19;10.9;;;4.5;;
67429;SDS011;54298;52.076;5.264;2023-10-31T09:14:31;8.4;;;3.7;;
67429;SDS011;54298;52.076;5.264;2023-10-31T09:16:07;8.1;;;3.0;;
67429;SDS011;54298;52.076;5.264;2023-10-31T09:17:44;6.4;;;2.9;;
67429;SDS011;54298;52.076;5.264;2023-10-31T09:19:20;9.71;;;3.7;;
67429;SDS011;54298;52.076;5.264;2023-10-31T09:22:32;7.3;;;3.2;;
67429;SDS011;54298;52.076;5.264;2023-10-31T09:24:09;11.6;;;3.5;;
67429;SDS011;54298;52.076;5.264;2023-10-31T09:25:46;10.4;;;3.1;;
67429;SDS011;54298;52.076;5.264;2023-10-31T09:28:58;5.8;;;3.1;;
67429;SDS011;54298;52.076;5.264;2023-10-31T09:30:34;5.6;;;3.3;;
67429;SDS011;54298;52.076;5.264;2023-10-31T09:32:10;7.9;;;4.1;;
67429;SDS011;54298;52.076;5.264;2023-10-31T09:35:22;6.5;;;3.0;;
67429;SDS011;54298;52.076;5.264;2023-10-31T09:36:58;7.2;;;3.9;;
67429;SDS011;54298;52.076;5.264;2023-10-31T09:38:34;8.5;;;3.8;;
67429;SDS011;54298;52.076;5.264;2023-10-31T09:41:47;6.1;;;3.3;;
67429;SDS011;54298;52.076;5.264;2023-10-31T09:43:23;7.6;;;2.5;;
67429;SDS011;54298;52.076;5.264;2023-10-31T09:44:59;5.8;;;2.7;;
67429;SDS011;54298;52.076;5.264;2023-10-31T09:46:35;6.5;;;3.2;;
67429;SDS011;54298;52.076;5.264;2023-10-31T09:49:49;7.7;;;3.3;;
67429;SDS011;54298;52.076;5.264;2023-10-31T09:51:27;8.4;;;3.0;;
67429;SDS011;54298;52.076;5.264;2023-10-31T09:53:03;4.5;;;2.7;;
67429;SDS011;54298;52.076;5.264;2023-10-31T09:56:18;5.4;;;2.7;;
67429;SDS011;54298;52.076;5.264;2023-10-31T09:57:55;7.0;;;2.6;;
67429;SDS011;54298;52.076;5.264;2023-10-31T09:59:31;6.2;;;2.6;;
67429;SDS011;54298;52.076;5.264;2023-10-31T10:02:43;13.2;;;3.5;;
67429;SDS011;54298;52.076;5.264;2023-10-31T10:04:19;13.0;;;4.3;;
67429;SDS011;54298;52.076;5.264;2023-10-31T10:05:56;9.9;;;3.5;;
67429;SDS011;54298;52.076;5.264;2023-10-31T10:07:33;10.0;;;4.2;;
67429;SDS011;54298;52.076;5.264;2023-10-31T10:10:46;12.5;;;6.2;;
67429;SDS011;54298;52.076;5.264;2023-10-31T10:12:23;13.2;;;4.41;;
67429;SDS011;54298;52.076;5.264;2023-10-31T10:14:00;9.4;;;3.3;;
67429;SDS011;54298;52.076;5.264;2023-10-31T10:17:20;6.6;;;2.9;;
67429;SDS011;54298;52.076;5.264;2023-10-31T10:20:55;7.0;;;3.1;;
67429;SDS011;54298;52.076;5.264;2023-10-31T10:22:32;6.8;;;3.4;;
67429;SDS011;54298;52.076;5.264;2023-10-31T10:24:08;9.31;;;4.0;;
67429;SDS011;54298;52.076;5.264;2023-10-31T10:27:25;9.1;;;3.8;;
67429;SDS011;54298;52.076;5.264;2023-10-31T10:29:01;9.31;;;2.9;;
67429;SDS011;54298;52.076;5.264;2023-10-31T10:30:37;6.6;;;3.3;;
67429;SDS011;54298;52.076;5.264;2023-10-31T10:33:50;7.5;;;3.4;;
67429;SDS011;54298;52.076;5.264;2023-10-31T10:35:26;10.7;;;4.2;;
67429;SDS011;54298;52.076;5.264;2023-10-31T10:37:03;8.71;;;4.41;;
67429;SDS011;54298;52.076;5.264;2023-10-31T10:40:22;13.7;;;6.3;;
67429;SDS011;54298;52.076;5.264;2023-10-31T10:41:58;10.21;;;3.8;;
67429;SDS011;54298;52.076;5.264;2023-10-31T10:43:37;17.91;;;8.6;;
67429;SDS011;54298;52.076;5.264;2023-10-31T10:45:14;15.9;;;6.4;;
67429;SDS011;54298;52.076;5.264;2023-10-31T10:48:30;7.9;;;4.1;;
67429;SDS011;54298;52.076;5.264;2023-10-31T10:50:14;7.1;;;4.1;;
67429;SDS011;54298;52.076;5.264;2023-10-31T10:51:52;8.81;;;3.2;;
67429;SDS011;54298;52.076;5.264;2023-10-31T10:53:34;14.1;;;4.7;;
67429;SDS011;54298;52.076;5.264;2023-10-31T10:57:03;9.5;;;3.2;;
67429;SDS011;54298;52.076;5.264;2023-10-31T10:58:51;5.6;;;2.7;;
67429;SDS011;54298;52.076;5.264;2023-10-31T11:00:30;9.71;;;4.2;;
67429;SDS011;54298;52.076;5.264;2023-10-31T11:02:06;9.31;;;2.8;;
67429;SDS011;54298;52.076;5.264;2023-10-31T11:05:21;7.5;;;3.7;;
67429;SDS011;54298;52.076;5.264;2023-10-31T11:06:59;7.1;;;2.21;;
67429;SDS011;54298;52.076;5.264;2023-10-31T11:08:37;7.7;;;2.4;;
67429;SDS011;54298;52.076;5.264;2023-10-31T11:10:14;6.1;;;2.5;;
67429;SDS011;54298;52.076;5.264;2023-10-31T11:13:29;5.3;;;2.7;;
67429;SDS011;54298;52.076;5.264;2023-10-31T11:15:06;9.6;;;2.7;;
67429;SDS011;54298;52.076;5.264;2023-10-31T11:16:48;6.7;;;2.4;;
67429;SDS011;54298;52.076;5.264;2023-10-31T11:20:07;11.4;;;2.5;;
67429;SDS011;54298;52.076;5.264;2023-10-31T11:21:53;5.0;;;2.0;;
67429;SDS011;54298;52.076;5.264;2023-10-31T11:23:29;11.5;;;5.6;;
67429;SDS011;54298;52.076;5.264;2023-10-31T11:25:06;9.6;;;2.7;;
67429;SDS011;54298;52.076;5.264;2023-10-31T11:28:27;4.5;;;2.31;;
67429;SDS011;54298;52.076;5.264;2023-10-31T11:30:05;6.4;;;2.9;;
67429;SDS011;54298;52.076;5.264;2023-10-31T11:31:42;7.9;;;2.6;;
67429;SDS011;54298;52.076;5.264;2023-10-31T11:33:19;4.8;;;2.4;;
67429;SDS011;54298;52.076;5.264;2023-10-31T11:36:32;5.2;;;2.21;;
67429;SDS011;54298;52.076;5.264;2023-10-31T11:38:11;12.3;;;5.3;;
67429;SDS011;54298;52.076;5.264;2023-10-31T11:40:14;7.9;;;2.6;;
67429;SDS011;54298;52.076;5.264;2023-10-31T11:42:00;8.2;;;3.1;;
67429;SDS011;54298;52.076;5.264;2023-10-31T11:43:52;5.8;;;2.9;;
67429;SDS011;54298;52.076;5.264;2023-10-31T11:47:14;7.7;;;2.9;;
67429;SDS011;54298;52.076;5.264;2023-10-31T11:48:51;6.5;;;2.9;;
67429;SDS011;54298;52.076;5.264;2023-10-31T11:50:29;8.0;;;4.0;;
67429;SDS011;54298;52.076;5.264;2023-10-31T11:52:13;10.7;;;6.0;;
67429;SDS011;54298;52.076;5.264;2023-10-31T11:55:28;13.8;;;7.1;;
67429;SDS011;54298;52.076;5.264;2023-10-31T11:57:04;15.9;;;7.6;;
67429;SDS011;54298;52.076;5.264;2023-10-31T11:58:40;13.5;;;7.0;;
67429;SDS011;54298;52.076;5.264;2023-10-31T12:01:57;13.4;;;7.4;;
67429;SDS011;54298;52.076;5.264;2023-10-31T12:03:36;14.7;;;7.8;;
67429;SDS011;54298;52.076;5.264;2023-10-31T12:05:13;13.1;;;6.8;;
67429;SDS011;54298;52.076;5.264;2023-10-31T12:06:56;14.6;;;9.1;;
67429;SDS011;54298;52.076;5.264;2023-10-31T12:10:16;14.7;;;7.7;;
67429;SDS011;54298;52.076;5.264;2023-10-31T12:11:57;12.5;;;8.2;;
67429;SDS011;54298;52.076;5.264;2023-10-31T12:13:34;14.3;;;8.81;;
67429;SDS011;54298;52.076;5.264;2023-10-31T12:15:12;12.7;;;8.5;;
67429;SDS011;54298;52.076;5.264;2023-10-31T12:18:25;13.8;;;8.6;;
67429;SDS011;54298;52.076;5.264;2023-10-31T12:20:03;18.8;;;9.5;;
67429;SDS011;54298;52.076;5.264;2023-10-31T12:21:40;17.91;;;10.0;;
67429;SDS011;54298;52.076;5.264;2023-10-31T12:24:59;18.0;;;8.71;;
67429;SDS011;54298;52.076;5.264;2023-10-31T12:26:36;17.2;;;9.4;;
67429;SDS011;54298;52.076;5.264;2023-10-31T12:28:16;15.8;;;8.81;;
67429;SDS011;54298;52.076;5.264;2023-10-31T12:29:59;18.0;;;10.9;;
67429;SDS011;54298;52.076;5.264;2023-10-31T12:33:15;19.91;;;11.0;;
67429;SDS011;54298;52.076;5.264;2023-10-31T12:34:52;15.4;;;9.0;;
67429;SDS011;54298;52.076;5.264;2023-10-31T12:36:28;13.7;;;9.0;;
67429;SDS011;54298;52.076;5.264;2023-10-31T12:38:04;14.1;;;8.9;;
67429;SDS011;54298;52.076;5.264;2023-10-31T12:41:17;14.9;;;9.4;;
67429;SDS011;54298;52.076;5.264;2023-10-31T12:42:53;16.3;;;9.71;;
67429;SDS011;54298;52.076;5.264;2023-10-31T12:44:30;18.7;;;10.21;;
67429;SDS011;54298;52.076;5.264;2023-10-31T12:48:05;18.11;;;10.5;;
67429;SDS011;54298;52.076;5.264;2023-10-31T12:49:44;18.61;;;11.3;;
67429;SDS011;54298;52.076;5.264;2023-10-31T12:51:20;22.5;;;12.5;;
67429;SDS011;54298;52.076;5.264;2023-10-31T12:52:56;23.2;;;12.5;;
67429;SDS011;54298;52.076;5.264;2023-10-31T12:56:10;23.1;;;12.2;;
67429;SDS011;54298;52.076;5.264;2023-10-31T12:57:47;22.5;;;13.4;;